Time;durP1;ratioP1;P1;durP2;ratioP2;P2;SDS_P1;SDS_P2;PMS_P1;PMS_P2;Temp;Humidity;BMP_temperature;BMP_pressure;BME280_temperature;BME280_humidity;BME280_pressure;Samples;Min_cycle;Max_cycle;Signal;HPM_P1;HPM_P2
2021/09/08 00:43:40;;;;;;;7.40;5.20;;;19.80;65.70;;;;;;102746282;28;20042;-56
2021/09/08 01:33:43;;;;;;;8.10;5.63;;;19.80;65.40;;;;;;102630067;28;20041;-55
2021/09/08 02:23:44;;;;;;;6.53;4.90;;;19.70;64.90;;;;;;102566015;28;20039;-59
2021/09/08 03:13:44;;;;;;;5.63;4.47;;;19.70;64.50;;;;;;102541616;28;20114;-51
2021/09/08 04:03:48;;;;;;;5.72;4.60;;;19.60;64.40;;;;;;102523965;28;20039;-55
2021/09/08 04:53:49;;;;;;;7.23;4.80;;;19.60;63.90;;;;;;102500091;28;20069;-57
2021/09/08 05:43:49;;;;;;;22.35;7.68;;;19.50;63.60;;;;;;102482130;28;20670;-52
2021/09/08 06:33:50;;;;;;;12.15;7.00;;;19.40;63.70;;;;;;103338631;23;20042;-61
2021/09/08 07:23:51;;;;;;;9.80;5.43;;;19.40;64.20;;;;;;103520896;28;20090;-61
2021/09/08 08:13:52;;;;;;;17.60;6.25;;;19.50;64.10;;;;;;103549741;28;20416;-61
2021/09/08 09:04:10;;;;;;;16.02;9.40;;;19.60;64.40;;;;;;103634473;28;20041;-61
2021/09/08 09:54:11;;;;;;;14.20;9.40;;;19.80;64.70;;;;;;103671395;28;20026;-61
2021/09/08 10:44:16;;;;;;;11.20;6.40;;;20.00;64.40;;;;;;103669606;28;20045;-62
2021/09/08 11:34:22;;;;;;;12.13;5.27;;;20.30;63.50;;;;;;103633595;28;20034;-60
2021/09/08 12:24:27;;;;;;;;;;;20.70;61.60;;;;;;103542563;28;20033;-60
2021/09/08 13:14:28;;;;;;;6.30;4.47;;;20.90;61.10;;;;;;103477650;28;19913;-60
2021/09/08 14:04:29;;;;;;;8.10;3.92;;;21.10;58.90;;;;;;103617735;28;20042;-61
2021/09/08 14:54:30;;;;;;;4.60;3.47;;;21.00;58.60;;;;;;103742080;28;20127;-60
2021/09/08 15:44:30;;;;;;;8.65;4.43;;;20.80;57.80;;;;;;103734039;28;20123;-60
2021/09/08 17:42:56;;;;;;;15.40;5.83;;;20.80;60.00;;;;;;105196382;28;20198;-56
2021/09/08 18:32:50;;;;;;;35.73;9.20;;;21.30;64.00;;;;;;104882276;28;20028;-55
2021/09/08 19:22:50;;;;;;;36.78;9.10;;;21.10;63.20;;;;;;104781055;28;20039;-55
2021/09/08 20:12:51;;;;;;;38.88;9.55;;;20.90;65.50;;;;;;104758221;28;20025;-57
2021/09/08 20:39:58;;;;;;;25.67;8.60;;;20.80;64.80;;;;;;2063248;28;20968;-52
2021/09/08 20:40:59;;;;;;;33.58;9.68;;;20.70;64.90;;;;;;2078723;28;20022;-56
2021/09/08 20:41:59;;;;;;;27.85;9.35;;;20.70;64.90;;;;;;2074896;28;20022;-52
2021/09/08 20:43:00;;;;;;;23.77;8.82;;;20.70;65.00;;;;;;2071583;28;20024;-55
2021/09/08 20:44:01;;;;;;;31.08;9.93;;;20.70;65.30;;;;;;2059970;28;20030;-53
2021/09/08 20:45:03;;;;;;;20.75;7.43;;;20.70;65.30;;;;;;2079594;28;20021;-53
2021/09/08 20:46:03;;;;;;;33.50;9.50;;;20.60;65.20;;;;;;2082252;28;20033;-55
2021/09/08 20:47:04;;;;;;;31.65;9.63;;;20.60;65.40;;;;;;2081970;28;20053;-53
2021/09/08 20:48:05;;;;;;;22.30;7.88;;;20.60;65.50;;;;;;2079859;28;20426;-55
2021/09/08 20:49:05;;;;;;;21.33;8.65;;;20.60;65.50;;;;;;2084874;28;20021;-54
2021/09/08 20:50:07;;;;;;;24.42;7.72;;;20.60;65.60;;;;;;2088028;28;20040;-55
2021/09/08 20:51:08;;;;;;;22.38;9.65;;;20.60;65.70;;;;;;2082752;28;20159;-54
2021/09/08 20:52:09;;;;;;;25.45;7.57;;;20.60;65.70;;;;;;2079386;28;20104;-53
2021/09/08 20:53:09;;;;;;;26.48;7.95;;;20.60;65.60;;;;;;2087653;28;20534;-54
2021/09/08 20:54:10;;;;;;;30.23;8.70;;;20.60;65.80;;;;;;2087851;28;20049;-52
2021/09/08 20:55:12;;;;;;;26.27;7.60;;;20.60;65.70;;;;;;2088007;28;20539;-56
2021/09/08 20:56:13;;;;;;;18.23;7.40;;;20.60;65.70;;;;;;2087778;28;20017;-57
2021/09/08 20:57:13;;;;;;;;;;;20.60;65.60;;;;;;2088432;28;20021;-51
2021/09/08 20:58:14;;;;;;;28.47;7.73;;;20.60;65.70;;;;;;2080032;28;19905;-56
2021/09/08 20:59:15;;;;;;;22.88;7.28;;;20.60;65.50;;;;;;2081670;28;20034;-54
2021/09/08 21:00:16;;;;;;;31.35;8.73;;;20.60;65.50;;;;;;2087124;28;20033;-54
2021/09/08 21:01:19;;;;;;;20.58;8.50;;;20.60;65.50;;;;;;2087311;28;20048;-55
2021/09/08 21:02:20;;;;;;;20.17;7.15;;;20.60;65.40;;;;;;2087394;28;20519;-53
2021/09/08 21:03:20;;;;;;;23.67;7.13;;;20.60;65.40;;;;;;2087746;28;20026;-52
2021/09/08 21:04:21;;;;;;;27.80;8.55;;;20.60;65.50;;;;;;2087853;28;20108;-56
2021/09/08 21:05:21;;;;;;;25.73;8.68;;;20.50;65.50;;;;;;2087803;28;20071;-56
2021/09/08 21:06:22;;;;;;;23.10;9.18;;;20.60;65.60;;;;;;2087844;28;20120;-52
2021/09/08 21:07:23;;;;;;;15.77;7.20;;;20.50;65.60;;;;;;2080151;28;20080;-54
2021/09/08 21:08:23;;;;;;;24.35;8.88;;;20.60;65.70;;;;;;2079626;28;20054;-57
2021/09/08 21:09:24;;;;;;;18.30;7.93;;;20.50;65.70;;;;;;2079510;28;20034;-51
2021/09/08 21:10:24;;;;;;;20.55;7.78;;;20.50;65.80;;;;;;2084185;28;20036;-56
2021/09/08 21:11:25;;;;;;;23.25;7.70;;;20.50;65.80;;;;;;2087705;28;20040;-55
2021/09/08 21:12:26;;;;;;;21.70;10.02;;;20.50;65.80;;;;;;2087642;28;20033;-54
2021/09/08 21:13:26;;;;;;;24.27;7.93;;;20.50;65.80;;;;;;2086228;28;20111;-54
2021/09/08 21:14:27;;;;;;;17.77;7.32;;;20.50;65.90;;;;;;2079537;28;20025;-57
2021/09/08 21:15:28;;;;;;;14.65;7.07;;;20.50;65.90;;;;;;2079533;28;20377;-55
2021/09/08 21:16:28;;;;;;;27.48;7.65;;;20.50;66.00;;;;;;2079709;28;20134;-53
2021/09/08 21:17:30;;;;;;;17.80;7.70;;;20.50;65.90;;;;;;2086145;28;20057;-54
2021/09/08 21:18:31;;;;;;;10.77;5.78;;;20.50;65.90;;;;;;2087667;28;20033;-55
2021/09/08 21:19:32;;;;;;;;;;;20.50;66.00;;;;;;2087919;28;20036;-57
2021/09/08 21:20:32;;;;;;;20.77;7.70;;;20.50;66.00;;;;;;2087721;28;20332;-52
2021/09/08 21:21:33;;;;;;;17.88;6.43;;;20.50;65.80;;;;;;2087551;28;20026;-54
2021/09/08 21:22:34;;;;;;;12.63;7.22;;;20.50;65.80;;;;;;2087528;28;20025;-56
2021/09/08 21:23:34;;;;;;;18.50;7.40;;;20.50;65.80;;;;;;2087576;28;20114;-52
2021/09/08 21:24:35;;;;;;;19.80;7.20;;;20.50;65.90;;;;;;2087726;28;20433;-57
2021/09/08 21:25:36;;;;;;;11.98;7.18;;;20.50;65.80;;;;;;2087591;28;20029;-54
2021/09/08 21:26:36;;;;;;;19.73;8.18;;;20.50;66.30;;;;;;2087806;28;20057;-55
2021/09/08 21:27:37;;;;;;;16.15;7.53;;;20.50;65.80;;;;;;2081462;28;20037;-58
2021/09/08 21:28:37;;;;;;;20.05;7.70;;;20.50;65.80;;;;;;2079430;28;20038;-53
2021/09/08 21:29:38;;;;;;;17.08;7.38;;;20.50;65.80;;;;;;2079210;28;20057;-55
2021/09/08 21:30:39;;;;;;;11.32;7.18;;;20.50;65.80;;;;;;2079241;28;20053;-56
2021/09/08 21:31:39;;;;;;;18.02;7.63;;;20.50;65.70;;;;;;2079307;28;20388;-57
2021/09/08 21:32:40;;;;;;;11.98;7.35;;;20.50;65.90;;;;;;2079219;28;20109;-54
2021/09/08 21:33:40;;;;;;;12.70;5.38;;;20.50;65.90;;;;;;2079288;28;20029;-55
2021/09/08 21:34:41;;;;;;;13.77;6.85;;;20.50;65.80;;;;;;2079465;28;20034;-54
2021/09/08 21:35:41;;;;;;;13.25;7.43;;;20.50;66.10;;;;;;2079382;28;20612;-57
2021/09/08 21:36:42;;;;;;;19.52;7.05;;;20.50;66.10;;;;;;2079398;28;20041;-56
2021/09/08 21:37:44;;;;;;;12.88;6.90;;;20.50;66.10;;;;;;2084686;28;20035;-52
2021/09/08 21:38:45;;;;;;;16.85;8.32;;;20.50;66.00;;;;;;2087613;28;20026;-54
2021/09/08 21:39:45;;;;;;;10.15;6.30;;;20.50;66.10;;;;;;2087449;28;20575;-53
2021/09/08 21:40:46;;;;;;;13.75;6.70;;;20.40;66.10;;;;;;2087458;28;20513;-52
2021/09/08 21:41:46;;;;;;;17.67;7.30;;;20.40;66.10;;;;;;2087358;28;20029;-55
2021/09/08 21:42:47;;;;;;;16.58;7.78;;;20.50;66.20;;;;;;2087311;28;20020;-54
2021/09/08 21:43:48;;;;;;;11.23;6.88;;;20.50;66.30;;;;;;2087522;28;20163;-54
2021/09/08 21:44:49;;;;;;;19.17;8.27;;;20.40;66.20;;;;;;2079660;28;20080;-55
2021/09/08 21:45:50;;;;;;;14.05;6.70;;;20.40;66.10;;;;;;2079357;28;20026;-59
2021/09/08 21:46:50;;;;;;;16.00;7.25;;;20.40;66.20;;;;;;2079270;28;20064;-58
2021/09/08 21:47:51;;;;;;;13.68;6.75;;;20.50;66.20;;;;;;2078625;28;20041;-59
2021/09/08 21:48:51;;;;;;;14.77;6.93;;;20.40;66.20;;;;;;2078621;28;20508;-57
2021/09/08 21:49:52;;;;;;;10.63;6.85;;;20.40;66.20;;;;;;2079235;28;20124;-59
2021/09/08 21:50:53;;;;;;;16.88;7.47;;;20.40;66.20;;;;;;2076314;28;20037;-59
2021/09/08 21:51:53;;;;;;;15.45;7.32;;;20.40;66.20;;;;;;2074459;28;20078;-56
2021/09/08 21:52:54;;;;;;;16.95;7.00;;;20.40;66.10;;;;;;2078555;28;20037;-54
2021/09/08 21:53:55;;;;;;;12.98;7.68;;;20.40;66.20;;;;;;2077656;28;20160;-54
2021/09/08 21:54:55;;;;;;;11.63;6.95;;;20.40;66.20;;;;;;2081934;28;20098;-54
2021/09/08 21:55:56;;;;;;;13.48;6.78;;;20.40;66.10;;;;;;2081929;28;20021;-56
2021/09/08 21:56:56;;;;;;;15.05;8.43;;;20.40;66.20;;;;;;2073611;28;20477;-54
2021/09/08 21:57:57;;;;;;;16.65;7.43;;;20.30;66.10;;;;;;2077495;28;20626;-58
2021/09/08 21:58:57;;;;;;;9.32;6.60;;;20.30;66.20;;;;;;2081086;28;20018;-58
2021/09/08 21:59:58;;;;;;;11.70;7.07;;;20.30;66.10;;;;;;2081237;28;20064;-56
2021/09/08 22:00:59;;;;;;;11.15;7.43;;;20.30;66.10;;;;;;2081859;28;20420;-51
2021/09/08 22:01:59;;;;;;;11.23;7.65;;;20.30;66.10;;;;;;2078971;28;20041;-52
2021/09/08 22:03:00;;;;;;;11.25;6.93;;;20.30;66.20;;;;;;2079846;28;20384;-54
2021/09/08 22:04:00;;;;;;;12.05;7.85;;;20.30;66.20;;;;;;2081263;28;20022;-55
2021/09/08 22:05:01;;;;;;;14.15;7.00;;;20.30;66.20;;;;;;2081715;28;20018;-55
2021/09/08 22:06:02;;;;;;;12.82;8.10;;;20.30;66.10;;;;;;2081151;28;20021;-55
2021/09/08 22:07:02;;;;;;;8.90;7.28;;;20.30;66.20;;;;;;2078387;28;20033;-54
2021/09/08 22:08:03;;;;;;;13.80;7.65;;;20.30;66.20;;;;;;2081964;28;20049;-58
2021/09/08 22:09:04;;;;;;;12.05;7.80;;;20.30;66.20;;;;;;2081710;28;20100;-57
2021/09/08 22:10:06;;;;;;;10.82;6.18;;;20.40;66.80;;;;;;2081868;28;20035;-55
2021/09/08 22:11:06;;;;;;;11.88;7.22;;;20.30;66.20;;;;;;2074496;28;20014;-58
2021/09/08 22:12:07;;;;;;;11.73;6.93;;;20.30;66.20;;;;;;2075021;28;20510;-56
2021/09/08 22:13:09;;;;;;;10.98;7.45;;;20.30;66.20;;;;;;2079940;28;20034;-58
2021/09/08 22:14:10;;;;;;;15.23;7.38;;;20.40;66.20;;;;;;2081019;28;20014;-58
2021/09/08 22:15:11;;;;;;;11.70;6.47;;;20.30;66.10;;;;;;2081763;28;20022;-58
2021/09/08 22:16:11;;;;;;;11.15;6.90;;;20.30;66.10;;;;;;2079699;28;20025;-58
2021/09/08 22:17:12;;;;;;;12.52;6.78;;;20.30;66.00;;;;;;2078011;28;20372;-58
2021/09/08 22:18:12;;;;;;;12.65;7.35;;;20.40;66.20;;;;;;2081751;28;20508;-59
2021/09/08 22:19:13;;;;;;;15.32;7.18;;;20.30;66.10;;;;;;2081702;28;20054;-58
2021/09/08 22:20:14;;;;;;;12.20;7.38;;;20.40;66.10;;;;;;2081604;28;20048;-58
2021/09/08 22:21:14;;;;;;;11.45;7.50;;;20.40;66.20;;;;;;2073597;28;20032;-58
2021/09/08 22:22:15;;;;;;;16.23;8.38;;;20.30;66.10;;;;;;2076168;28;20172;-54
2021/09/08 22:23:16;;;;;;;9.07;7.05;;;20.30;66.20;;;;;;2080756;28;20042;-55
2021/09/08 22:24:17;;;;;;;;;;;20.30;66.20;;;;;;2081859;28;20033;-55
2021/09/08 22:25:17;;;;;;;9.73;6.28;;;20.30;66.10;;;;;;2081692;28;19959;-55
2021/09/08 22:26:18;;;;;;;17.75;8.70;;;20.30;66.10;;;;;;2078830;28;20054;-56
2021/09/08 22:27:19;;;;;;;8.02;6.93;;;20.30;66.10;;;;;;2077245;28;20108;-54
2021/09/08 22:28:19;;;;;;;8.48;6.88;;;20.30;66.20;;;;;;2081708;28;20389;-55
2021/09/08 22:29:20;;;;;;;11.93;7.57;;;20.30;66.10;;;;;;2081786;28;20045;-54
2021/09/08 22:30:21;;;;;;;10.88;7.63;;;20.30;66.00;;;;;;2081405;28;20033;-57
2021/09/08 22:31:21;;;;;;;12.95;7.88;;;20.30;66.00;;;;;;2081664;28;20649;-55
2021/09/08 22:32:22;;;;;;;10.18;7.88;;;20.30;66.00;;;;;;2076810;28;20070;-57
2021/09/08 22:33:23;;;;;;;12.15;8.25;;;20.30;66.00;;;;;;2080956;28;20087;-58
2021/09/08 22:34:23;;;;;;;9.77;8.48;;;20.30;66.00;;;;;;2076964;28;20037;-59
2021/09/08 22:35:24;;;;;;;9.20;7.25;;;20.30;66.00;;;;;;2081555;28;20041;-53
2021/09/08 22:36:24;;;;;;;17.85;8.52;;;20.30;65.90;;;;;;2077791;28;20025;-54
2021/09/08 22:37:25;;;;;;;7.90;6.78;;;20.30;65.90;;;;;;2076310;28;20535;-54
2021/09/08 22:38:25;;;;;;;9.38;8.27;;;20.30;65.90;;;;;;2081606;28;20028;-55
2021/09/08 22:39:26;;;;;;;8.30;7.40;;;20.30;66.00;;;;;;2081445;28;20038;-54
2021/09/08 22:40:26;;;;;;;15.85;6.75;;;20.30;66.00;;;;;;2079605;28;20446;-58
2021/09/08 22:41:27;;;;;;;10.52;7.97;;;20.30;66.50;;;;;;2081360;28;20494;-50
2021/09/08 22:42:27;;;;;;;11.05;8.57;;;20.30;66.00;;;;;;2077104;28;20033;-57
2021/09/08 22:43:28;;;;;;;10.15;7.00;;;20.30;65.90;;;;;;2080843;28;20668;-55
2021/09/08 22:44:29;;;;;;;11.02;8.32;;;20.30;65.90;;;;;;2077035;28;20422;-55
2021/09/08 22:45:29;;;;;;;10.80;8.55;;;20.30;65.90;;;;;;2081514;28;20476;-53
2021/09/08 22:46:30;;;;;;;11.10;7.80;;;20.30;65.90;;;;;;2076869;28;20049;-54
2021/09/08 22:47:30;;;;;;;11.27;7.93;;;20.30;65.90;;;;;;2075274;28;20034;-55
2021/09/08 22:48:31;;;;;;;13.23;8.43;;;20.20;66.40;;;;;;2081602;28;20447;-57
2021/09/08 22:49:31;;;;;;;11.52;8.93;;;20.30;65.90;;;;;;2081523;28;20487;-54
2021/09/08 22:50:32;;;;;;;8.75;7.50;;;20.30;66.00;;;;;;2078867;28;20053;-53
2021/09/08 22:51:33;;;;;;;9.88;7.65;;;20.20;65.90;;;;;;2080294;28;20044;-55
2021/09/08 22:52:33;;;;;;;12.10;8.40;;;20.20;66.00;;;;;;2079715;28;20033;-57
2021/09/08 22:53:34;;;;;;;13.10;8.60;;;20.20;66.00;;;;;;2081035;28;20120;-53
2021/09/08 22:54:34;;;;;;;12.05;8.95;;;20.30;66.00;;;;;;2080414;28;20029;-55
2021/09/08 22:55:35;;;;;;;11.05;7.70;;;20.20;66.00;;;;;;2080849;28;20037;-54
2021/09/08 22:56:35;;;;;;;10.80;7.78;;;20.30;66.00;;;;;;2081232;28;20503;-55
2021/09/08 22:57:36;;;;;;;12.43;9.00;;;20.20;65.90;;;;;;2081401;28;20407;-53
2021/09/08 22:58:37;;;;;;;11.57;8.73;;;20.20;65.90;;;;;;2081533;28;20041;-55
2021/09/08 22:59:37;;;;;;;9.25;8.35;;;20.20;65.90;;;;;;2081229;28;20060;-57
2021/09/08 23:00:38;;;;;;;13.38;8.07;;;20.20;65.90;;;;;;2081060;28;20026;-51
2021/09/08 23:01:38;;;;;;;10.82;8.30;;;20.30;65.90;;;;;;2081171;28;20025;-53
2021/09/08 23:02:39;;;;;;;9.80;7.72;;;20.30;65.90;;;;;;2076388;28;20040;-54
2021/09/08 23:03:40;;;;;;;18.42;8.48;;;20.30;65.90;;;;;;2080405;28;20021;-54
2021/09/08 23:04:40;;;;;;;8.23;7.22;;;20.20;65.80;;;;;;2080829;28;20105;-50
2021/09/08 23:05:41;;;;;;;10.27;7.70;;;20.30;65.90;;;;;;2081281;28;20029;-49
2021/09/08 23:06:41;;;;;;;10.50;8.02;;;20.30;65.90;;;;;;2077165;28;20029;-54
2021/09/08 23:07:42;;;;;;;9.65;7.60;;;20.20;65.90;;;;;;2081314;28;20057;-53
2021/09/08 23:08:42;;;;;;;11.95;8.15;;;20.20;65.90;;;;;;2081432;28;20101;-53
2021/09/08 23:09:44;;;;;;;11.45;7.47;;;20.20;65.90;;;;;;2081428;28;20582;-53
2021/09/08 23:10:44;;;;;;;11.27;8.05;;;20.20;65.90;;;;;;2077106;28;20133;-53
2021/09/08 23:11:45;;;;;;;11.57;8.45;;;20.20;65.90;;;;;;2073659;28;20088;-54
2021/09/08 23:12:46;;;;;;;11.65;8.15;;;20.20;65.90;;;;;;2077698;28;20458;-54
2021/09/08 23:13:46;;;;;;;12.85;8.75;;;20.20;65.90;;;;;;2080910;28;20482;-49
2021/09/08 23:14:47;;;;;;;13.75;8.65;;;20.20;65.90;;;;;;2080717;28;20113;-55
2021/09/08 23:15:47;;;;;;;9.93;8.13;;;20.20;65.90;;;;;;2081268;28;20104;-53
2021/09/08 23:16:48;;;;;;;11.45;8.40;;;20.20;65.90;;;;;;2075440;28;20034;-54
2021/09/08 23:17:50;;;;;;;9.35;7.75;;;20.20;65.90;;;;;;2081268;28;20041;-50
2021/09/08 23:18:50;;;;;;;9.00;6.80;;;20.20;66.00;;;;;;2081229;28;20034;-56
2021/09/08 23:19:51;;;;;;;12.55;8.25;;;20.20;65.90;;;;;;2081110;28;20041;-55
2021/09/08 23:20:51;;;;;;;12.43;8.63;;;20.20;65.90;;;;;;2076091;28;20061;-58
2021/09/08 23:21:52;;;;;;;11.05;7.60;;;20.20;65.90;;;;;;2073266;28;20026;-58
2021/09/08 23:22:52;;;;;;;10.65;7.93;;;20.20;65.90;;;;;;2079582;28;20021;-59
2021/09/08 23:23:53;;;;;;;12.35;8.88;;;20.20;65.90;;;;;;2080635;28;20022;-58
2021/09/08 23:24:53;;;;;;;13.40;8.77;;;20.20;65.90;;;;;;2077493;28;20025;-58
2021/09/08 23:25:54;;;;;;;12.50;7.95;;;20.20;65.90;;;;;;2081414;28;20484;-58
2021/09/08 23:26:54;;;;;;;9.20;7.88;;;20.20;65.90;;;;;;2073795;28;20112;-59
2021/09/08 23:27:55;;;;;;;10.80;9.27;;;20.20;65.90;;;;;;2081529;28;20025;-58
2021/09/08 23:28:56;;;;;;;11.25;8.55;;;20.20;65.90;;;;;;2081440;28;20018;-58
2021/09/08 23:29:56;;;;;;;9.70;8.40;;;20.20;65.90;;;;;;2081378;28;20069;-59
2021/09/08 23:30:57;;;;;;;12.13;7.80;;;20.20;65.80;;;;;;2075501;28;20462;-59
2021/09/08 23:31:57;;;;;;;10.40;8.27;;;20.20;65.80;;;;;;2072921;28;20132;-59
2021/09/08 23:32:58;;;;;;;9.30;7.70;;;20.20;65.80;;;;;;2077440;28;20070;-59
2021/09/08 23:33:58;;;;;;;10.02;9.00;;;20.20;65.80;;;;;;2079928;28;20025;-57
2021/09/08 23:34:59;;;;;;;11.73;9.43;;;20.20;65.80;;;;;;2078047;28;20032;-57
2021/09/08 23:36:00;;;;;;;11.77;8.50;;;20.20;65.80;;;;;;2081021;28;20037;-59
2021/09/08 23:37:00;;;;;;;11.18;8.80;;;20.10;65.80;;;;;;2072873;28;20045;-59
2021/09/08 23:38:01;;;;;;;8.68;7.15;;;20.20;65.90;;;;;;2080725;28;20021;-59
2021/09/08 23:39:02;;;;;;;13.25;7.93;;;20.20;66.00;;;;;;2080910;28;20026;-59
2021/09/08 23:40:04;;;;;;;23.35;8.93;;;20.10;65.80;;;;;;2081340;28;20030;-59
2021/09/08 23:41:04;;;;;;;9.43;7.57;;;20.20;65.90;;;;;;2079080;28;20030;-59
2021/09/08 23:42:05;;;;;;;7.65;6.85;;;20.20;65.90;;;;;;2077725;28;20029;-60
2021/09/08 23:43:08;;;;;;;12.93;8.52;;;20.20;65.80;;;;;;2078871;28;20022;-60
2021/09/08 23:44:09;;;;;;;10.65;8.90;;;20.20;65.80;;;;;;2078430;28;20013;-59
2021/09/08 23:45:10;;;;;;;10.55;7.22;;;20.20;65.80;;;;;;2079468;28;20045;-60
2021/09/08 23:46:10;;;;;;;12.48;8.35;;;20.20;65.80;;;;;;2079315;28;20041;-59
2021/09/08 23:47:11;;;;;;;10.65;8.85;;;20.20;65.90;;;;;;2072889;28;20354;-59
2021/09/08 23:48:11;;;;;;;9.48;8.48;;;20.10;65.80;;;;;;2080350;28;20373;-60
2021/09/08 23:49:12;;;;;;;10.57;8.95;;;20.10;65.80;;;;;;2080960;28;20017;-60
2021/09/08 23:50:13;;;;;;;10.32;8.70;;;20.10;65.80;;;;;;2081137;28;20049;-60
2021/09/08 23:51:13;;;;;;;11.50;9.75;;;20.20;65.90;;;;;;2077398;28;20453;-59
2021/09/08 23:52:14;;;;;;;10.35;8.75;;;20.10;65.80;;;;;;2077809;28;20053;-58
2021/09/08 23:53:14;;;;;;;10.02;7.90;;;20.10;65.80;;;;;;2075826;28;20097;-59
2021/09/08 23:54:20;;;;;;;10.75;8.50;;;20.10;65.80;;;;;;2079476;28;20025;-60
2021/09/08 23:55:20;;;;;;;11.40;8.23;;;20.10;65.80;;;;;;2080501;28;20068;-60
2021/09/08 23:56:21;;;;;;;9.82;8.75;;;20.10;65.70;;;;;;2077815;28;20077;-60
2021/09/08 23:57:21;;;;;;;12.80;8.40;;;20.10;65.80;;;;;;2072729;28;20489;-59
2021/09/08 23:58:22;;;;;;;9.85;8.50;;;20.10;65.80;;;;;;2080098;28;20053;-59
2021/09/08 23:59:22;;;;;;;12.82;8.73;;;20.10;65.80;;;;;;2080844;28;20034;-59
